createdAt,value
2023-10-30T00:01:18.246Z,13.32
2023-10-30T00:06:25.941Z,13.35
2023-10-30T00:11:29.438Z,13.36
2023-10-30T00:16:35.039Z,13.38
2023-10-30T00:21:38.537Z,13.40
2023-10-30T00:26:42.445Z,13.39
2023-10-30T00:31:45.724Z,13.36
2023-10-30T00:36:49.169Z,13.33
2023-10-30T00:41:52.418Z,13.30
2023-10-30T00:46:55.613Z,13.28
2023-10-30T00:51:58.923Z,13.25
2023-10-30T00:57:02.234Z,13.21
2023-10-30T01:02:05.834Z,13.17
2023-10-30T01:07:09.525Z,13.12
2023-10-30T01:12:12.776Z,13.06
2023-10-30T01:17:15.995Z,13.03
2023-10-30T01:22:19.363Z,13.01
2023-10-30T01:27:22.662Z,12.96
2023-10-30T01:32:25.924Z,12.90
2023-10-30T01:37:29.319Z,12.83
2023-10-30T01:42:43.298Z,12.77
2023-10-30T01:47:46.854Z,12.72
2023-10-30T01:52:50.318Z,12.66
2023-10-30T01:57:53.629Z,12.60
2023-10-30T02:02:58.603Z,12.54
2023-10-30T02:08:02.533Z,12.46
2023-10-30T02:13:08.298Z,12.39
2023-10-30T02:18:14.308Z,12.32
2023-10-30T02:23:17.691Z,12.21
2023-10-30T02:28:21.026Z,12.14
2023-10-30T02:33:30.124Z,12.05
2023-10-30T02:38:33.423Z,12.05
2023-10-30T02:43:36.816Z,12.06
2023-10-30T02:48:40.415Z,12.07
2023-10-30T02:53:44.010Z,12.04
2023-10-30T02:58:47.394Z,11.99
2023-10-30T03:03:50.867Z,11.98
2023-10-30T03:08:54.271Z,11.99
2023-10-30T03:14:08.282Z,11.99
2023-10-30T03:19:14.649Z,12.00
2023-10-30T03:24:18.076Z,11.97
2023-10-30T03:29:35.560Z,11.94
2023-10-30T03:34:38.862Z,11.93
2023-10-30T03:39:52.038Z,11.92
2023-10-30T03:44:55.771Z,11.89
2023-10-30T03:49:59.188Z,11.82
2023-10-30T03:55:12.057Z,11.73
2023-10-30T04:00:15.717Z,11.63
2023-10-30T04:05:19.197Z,11.57
2023-10-30T04:10:22.640Z,11.51
2023-10-30T04:15:28.413Z,11.49
2023-10-30T04:20:31.848Z,11.45
2023-10-30T04:25:35.078Z,11.39
2023-10-30T04:30:41.802Z,11.28
2023-10-30T04:35:45.025Z,11.21
2023-10-30T04:40:48.431Z,11.09
2023-10-30T04:45:54.565Z,10.97
2023-10-30T04:50:57.889Z,10.90
2023-10-30T04:56:03.560Z,10.85
2023-10-30T05:01:10.415Z,10.79
2023-10-30T05:06:16.358Z,10.75
2023-10-30T05:11:19.905Z,10.72
2023-10-30T05:16:23.426Z,10.69
2023-10-30T05:21:27.204Z,10.72
2023-10-30T05:26:30.422Z,10.80
2023-10-30T05:31:36.844Z,10.90
2023-10-30T05:36:43.570Z,10.99
2023-10-30T05:41:47.576Z,11.08
2023-10-30T05:47:03.965Z,11.15
2023-10-30T05:52:09.523Z,11.22
2023-10-30T05:57:15.295Z,11.29
2023-10-30T06:02:19.013Z,11.32
2023-10-30T06:07:22.431Z,11.39
2023-10-30T06:12:29.115Z,11.47
2023-10-30T06:17:48.023Z,11.57
2023-10-30T06:22:54.883Z,11.67
2023-10-30T06:28:18.404Z,11.78
2023-10-30T06:33:32.969Z,11.92
2023-10-30T06:38:37.409Z,12.06
2023-10-30T06:43:41.820Z,12.18
2023-10-30T06:48:45.153Z,12.32
2023-10-30T06:53:48.540Z,12.44
2023-10-30T06:58:52.055Z,12.57
2023-10-30T07:03:55.956Z,12.71
2023-10-30T07:09:01.551Z,12.87
2023-10-30T07:14:15.761Z,13.03
2023-10-30T07:19:23.481Z,13.18
2023-10-30T07:24:27.019Z,13.35
2023-10-30T07:29:32.789Z,13.54
2023-10-30T07:34:36.207Z,13.71
2023-10-30T07:39:46.954Z,13.86
2023-10-30T07:44:53.459Z,14.02
2023-10-30T07:49:57.847Z,14.19
2023-10-30T07:55:03.200Z,14.33
2023-10-30T08:00:09.149Z,14.46
2023-10-30T08:05:18.537Z,14.60
2023-10-30T08:10:22.022Z,14.74
2023-10-30T08:15:26.012Z,14.88
2023-10-30T08:20:29.757Z,14.98
2023-10-30T08:25:34.136Z,15.07
2023-10-30T08:30:37.519Z,15.16
2023-10-30T08:35:41.011Z,15.27
2023-10-30T08:40:44.414Z,15.36
2023-10-30T08:45:47.912Z,15.41
2023-10-30T08:50:52.034Z,15.47
2023-10-30T08:55:57.670Z,15.53
2023-10-30T09:01:02.099Z,15.58
2023-10-30T09:06:05.947Z,15.61
2023-10-30T09:11:09.358Z,15.68
2023-10-30T09:16:13.187Z,15.74
2023-10-30T09:21:16.503Z,15.83
2023-10-30T09:26:19.928Z,15.94
2023-10-30T09:31:23.196Z,16.06
2023-10-30T09:36:26.771Z,16.13
2023-10-30T09:41:30.816Z,16.17
2023-10-30T09:46:34.210Z,16.21
2023-10-30T09:51:38.639Z,16.28
2023-10-30T09:56:42.649Z,16.35
2023-10-30T10:01:45.907Z,16.42
2023-10-30T10:06:52.743Z,16.44
2023-10-30T10:11:55.988Z,16.47
2023-10-30T10:17:01.249Z,16.49
2023-10-30T10:22:05.129Z,16.50
2023-10-30T10:27:08.588Z,16.48
2023-10-30T10:32:13.146Z,16.46
2023-10-30T10:37:20.041Z,16.47
2023-10-30T10:42:25.669Z,16.48
2023-10-30T10:47:29.222Z,16.48
2023-10-30T10:52:34.292Z,16.48
2023-10-30T10:58:03.329Z,16.48
2023-10-30T11:03:07.712Z,16.48
2023-10-30T11:08:35.779Z,16.50
2023-10-30T11:13:59.863Z,16.52
2023-10-30T11:19:03.229Z,16.53
2023-10-30T11:24:10.128Z,16.59
2023-10-30T11:29:18.760Z,16.59
2023-10-30T11:34:30.490Z,16.65
2023-10-30T11:39:37.530Z,16.68
2023-10-30T11:44:41.583Z,16.71
2023-10-30T11:49:47.265Z,16.74
2023-10-30T11:54:50.987Z,16.75
2023-10-30T11:59:54.901Z,16.80
2023-10-30T12:05:08.289Z,16.88
2023-10-30T12:10:11.687Z,16.95
2023-10-30T12:15:17.761Z,17.02
2023-10-30T12:20:21.850Z,17.11
2023-10-30T12:25:27.684Z,17.18
2023-10-30T12:30:39.892Z,17.22
2023-10-30T12:35:44.199Z,17.23
2023-10-30T12:40:48.163Z,17.23
2023-10-30T12:45:51.494Z,17.26
2023-10-30T12:50:54.874Z,17.29
2023-10-30T12:55:58.061Z,17.31
2023-10-30T13:06:11.147Z,17.36
2023-10-30T13:11:14.976Z,17.37
2023-10-30T13:16:18.363Z,17.39
2023-10-30T13:21:21.774Z,17.39
2023-10-30T13:26:25.068Z,17.38
2023-10-30T13:31:28.530Z,17.34
2023-10-30T13:36:31.740Z,17.33
2023-10-30T13:41:35.228Z,17.30
2023-10-30T13:46:39.071Z,17.27
2023-10-30T13:51:42.293Z,17.25
2023-10-30T13:56:45.597Z,17.22
2023-10-30T14:01:49.005Z,17.18
2023-10-30T14:06:55.430Z,17.09
2023-10-30T14:11:58.794Z,16.99
2023-10-30T14:17:02.116Z,16.89
2023-10-30T14:22:05.580Z,16.77
2023-10-30T14:27:09.064Z,16.67
2023-10-30T14:32:12.582Z,16.59
2023-10-30T14:37:15.974Z,16.49
2023-10-30T14:42:19.126Z,16.36
2023-10-30T14:47:22.437Z,16.24
2023-10-30T14:52:25.786Z,16.12
2023-10-30T14:57:29.256Z,15.99
2023-10-30T15:02:32.909Z,15.84
2023-10-30T15:07:39.468Z,15.69
2023-10-30T15:12:42.908Z,15.54
2023-10-30T15:17:46.286Z,15.43
2023-10-30T15:22:49.700Z,15.34
2023-10-30T15:27:54.326Z,15.24
2023-10-30T15:32:57.809Z,15.12
2023-10-30T15:38:01.283Z,15.00
2023-10-30T15:43:04.565Z,14.89
2023-10-30T15:48:08.951Z,14.75
2023-10-30T16:03:38.079Z,14.39
2023-10-30T16:08:51.964Z,14.27
2023-10-30T16:13:57.717Z,14.19
2023-10-30T16:24:07.980Z,14.01
2023-10-30T16:29:11.929Z,13.88
2023-10-30T16:34:15.288Z,13.81
2023-10-30T16:39:20.355Z,13.77
2023-10-30T16:44:23.856Z,13.70
2023-10-30T16:49:27.127Z,13.66
2023-10-30T16:54:30.485Z,13.60
2023-10-30T16:59:33.643Z,13.50
2023-10-30T17:04:36.935Z,13.47
2023-10-30T17:09:40.845Z,13.47
2023-10-30T17:14:44.127Z,13.43
2023-10-30T17:19:48.114Z,13.40
2023-10-30T17:24:51.573Z,13.39
2023-10-30T17:29:55.208Z,13.35
2023-10-30T17:34:58.634Z,13.29
2023-10-30T17:40:02.094Z,13.23
2023-10-30T17:45:05.976Z,13.18
2023-10-30T17:50:15.643Z,13.14
2023-10-30T17:55:53.432Z,13.12
2023-10-30T18:00:59.562Z,13.07
2023-10-30T18:06:03.011Z,13.03
2023-10-30T18:11:07.625Z,13.00
2023-10-30T18:16:11.637Z,13.02
2023-10-30T18:21:15.090Z,13.07
2023-10-30T18:26:24.273Z,13.12
2023-10-30T18:31:27.843Z,13.17
2023-10-30T18:36:31.314Z,13.22
2023-10-30T18:41:36.414Z,13.23
2023-10-30T18:46:40.039Z,13.27
2023-10-30T18:51:44.214Z,13.29
2023-10-30T18:56:47.764Z,13.28
2023-10-30T19:01:51.262Z,13.27
2023-10-30T19:06:54.564Z,13.27
2023-10-30T19:12:01.435Z,13.27
2023-10-30T19:17:04.801Z,13.26
2023-10-30T19:22:09.841Z,13.24
2023-10-30T19:27:13.302Z,13.22
2023-10-30T19:32:16.872Z,13.17
2023-10-30T19:37:20.597Z,13.12
2023-10-30T19:42:23.970Z,13.08
2023-10-30T19:47:27.655Z,13.06
2023-10-30T19:52:31.209Z,13.00
2023-10-30T19:57:36.546Z,12.95
2023-10-30T20:02:40.183Z,12.91
2023-10-30T20:07:43.881Z,12.86
2023-10-30T20:12:49.865Z,12.81
2023-10-30T20:17:58.832Z,12.77
2023-10-30T20:23:02.504Z,12.73
2023-10-30T20:28:06.109Z,12.71
2023-10-30T20:33:10.994Z,12.69
2023-10-30T20:38:14.424Z,12.65
2023-10-30T20:43:21.145Z,12.64
2023-10-30T20:48:24.756Z,12.62
2023-10-30T20:53:28.291Z,12.59
2023-10-30T20:58:31.623Z,12.57
2023-10-30T21:03:34.891Z,12.55
2023-10-30T21:08:41.570Z,12.53
2023-10-30T21:13:45.495Z,12.52
2023-10-30T21:18:48.732Z,12.53
2023-10-30T21:23:55.987Z,12.50
2023-10-30T21:29:04.744Z,12.49
2023-10-30T21:34:08.174Z,12.47
2023-10-30T21:39:11.501Z,12.45
2023-10-30T21:44:14.964Z,12.43
2023-10-30T21:49:19.081Z,12.42
2023-10-30T21:54:23.463Z,12.41
2023-10-30T21:59:27.165Z,12.38
2023-10-30T22:04:30.739Z,12.33
2023-10-30T22:09:34.190Z,12.30
2023-10-30T22:14:37.418Z,12.27
2023-10-30T22:19:40.779Z,12.25
2023-10-30T22:24:44.322Z,12.24
2023-10-30T22:29:47.597Z,12.24
2023-10-30T22:34:53.379Z,12.24
2023-10-30T22:39:56.676Z,12.26
2023-10-30T22:45:00.253Z,12.27
2023-10-30T22:50:04.165Z,12.29
2023-10-30T22:55:10.815Z,12.30
2023-10-30T23:00:24.412Z,12.31
2023-10-30T23:05:27.878Z,12.31
2023-10-30T23:10:31.388Z,12.31
2023-10-30T23:15:34.959Z,12.25
2023-10-30T23:20:41.259Z,12.18
2023-10-30T23:25:44.557Z,12.13
2023-10-30T23:30:48.179Z,12.08
2023-10-30T23:35:51.894Z,12.01
2023-10-30T23:40:55.287Z,11.98
2023-10-30T23:45:58.744Z,11.96
2023-10-30T23:51:02.034Z,11.92
2023-10-30T23:56:05.973Z,11.88
